createdAt,value
2023-04-01T00:01:29.594Z,93382.41
2023-04-01T00:04:16.537Z,93385.03
2023-04-01T00:06:49.619Z,93378.31
2023-04-01T00:09:36.468Z,93381.72
2023-04-01T00:12:10.742Z,93374.97
2023-04-01T00:14:57.485Z,93369.88
2023-04-01T00:17:37.480Z,93374.19
2023-04-01T00:20:31.619Z,93371.69
2023-04-01T00:23:18.483Z,93369.28
2023-04-01T00:25:59.493Z,93364.22
2023-04-01T00:28:46.498Z,93367.66
2023-04-01T00:31:27.532Z,93362.66
2023-04-01T00:34:14.495Z,93361.94
2023-04-01T00:36:47.611Z,93368.78
2023-04-01T00:39:37.511Z,93373.91
2023-04-01T00:42:12.060Z,93377.28
2023-04-01T00:45:06.521Z,93376.44
2023-04-01T00:47:53.494Z,93380.69
2023-04-01T00:50:35.498Z,93375.69
2023-04-01T00:53:32.540Z,93379.19
2023-04-01T00:56:23.494Z,93363.22
2023-04-01T00:59:15.509Z,93376.00
2023-04-01T01:02:09.714Z,93376.09
2023-04-01T01:04:56.527Z,93382.22
2023-04-01T01:08:16.632Z,93396.72
2023-04-01T01:11:03.513Z,93386.66
2023-04-01T01:14:01.609Z,93390.16
2023-04-01T01:16:59.669Z,93391.13
2023-04-01T01:20:12.770Z,93386.97
2023-04-01T01:23:42.503Z,93384.50
2023-04-01T01:27:06.540Z,93386.28
2023-04-01T01:30:01.612Z,93384.78
2023-04-01T01:33:25.538Z,93376.50
2023-04-01T01:36:19.514Z,93380.88
2023-04-01T01:38:54.655Z,93372.53
2023-04-01T01:41:43.530Z,93376.72
2023-04-01T01:44:20.716Z,93381.78
2023-04-01T01:47:15.546Z,93383.53
2023-04-01T01:50:03.537Z,93374.28
2023-04-01T01:52:36.627Z,93387.81
2023-04-01T01:55:54.509Z,93385.25
2023-04-01T01:58:31.741Z,93373.38
2023-04-01T02:01:27.574Z,93388.72
2023-04-01T02:04:02.681Z,93394.69
2023-04-01T02:06:57.526Z,93397.19
2023-04-01T02:09:30.988Z,93390.34
2023-04-01T02:12:20.523Z,93395.31
2023-04-01T02:15:00.646Z,93400.47
2023-04-01T02:17:51.555Z,93391.03
2023-04-01T02:20:29.631Z,93401.16
2023-04-01T02:23:18.545Z,93401.16
2023-04-01T02:25:59.614Z,93403.69
2023-04-01T02:28:55.554Z,93401.19
2023-04-01T02:31:42.609Z,93395.44
2023-04-01T02:34:16.622Z,93398.88
2023-04-01T02:37:04.550Z,93386.97
2023-04-01T02:39:37.663Z,93394.50
2023-04-01T02:42:24.554Z,93391.09
2023-04-01T02:44:57.700Z,93389.34
2023-04-01T02:47:44.583Z,93390.16
2023-04-01T02:50:24.551Z,93394.31
2023-04-01T02:53:13.549Z,93390.06
2023-04-01T02:55:46.683Z,93390.91
2023-04-01T02:58:33.609Z,93385.91
2023-04-01T03:01:06.751Z,93387.63
2023-04-01T03:03:53.543Z,93386.84
2023-04-01T03:06:33.613Z,93391.97
2023-04-01T03:09:20.570Z,93386.94
2023-04-01T03:11:53.708Z,93388.63
2023-04-01T03:14:40.551Z,93396.31
2023-04-01T03:17:14.783Z,93399.78
2023-04-01T03:20:02.552Z,93387.91
2023-04-01T03:22:36.141Z,93401.47
2023-04-01T03:25:22.577Z,93404.94
2023-04-01T03:27:56.019Z,93404.13
2023-04-01T03:30:42.688Z,93411.81
2023-04-01T03:33:18.257Z,93418.59
2023-04-01T03:36:04.609Z,93418.56
2023-04-01T03:38:48.563Z,93423.72
2023-04-01T03:41:35.589Z,93418.78
2023-04-01T03:44:08.665Z,93425.53
2023-04-01T03:46:55.594Z,93422.25
2023-04-01T03:49:35.595Z,93427.34
2023-04-01T03:52:29.559Z,93430.81
2023-04-01T03:55:24.604Z,93425.91
2023-04-01T03:58:12.523Z,93427.75
2023-04-01T04:00:52.587Z,93427.84
2023-04-01T04:03:46.761Z,93420.34
2023-04-01T04:06:41.576Z,93423.88
2023-04-01T04:09:28.568Z,93418.84
2023-04-01T04:12:01.717Z,93418.06
2023-04-01T04:14:48.589Z,93424.06
2023-04-01T04:17:21.676Z,93428.38
2023-04-01T04:20:08.588Z,93419.97
2023-04-01T04:22:41.696Z,93431.16
2023-04-01T04:25:28.576Z,93438.75
2023-04-01T04:28:08.605Z,93436.22
2023-04-01T04:31:02.632Z,93427.84
2023-04-01T04:33:49.619Z,93430.56
2023-04-01T04:36:22.781Z,93429.78
2023-04-01T04:39:10.565Z,93428.13
2023-04-01T04:41:45.822Z,93426.47
2023-04-01T04:44:32.580Z,93427.34
2023-04-01T04:47:12.683Z,93427.41
2023-04-01T04:50:06.586Z,93421.63
2023-04-01T04:52:53.572Z,93413.28
2023-04-01T04:55:33.805Z,93412.59
2023-04-01T04:58:27.609Z,93420.19
2023-04-01T05:01:24.616Z,93422.88
2023-04-01T05:04:11.612Z,93431.50
2023-04-01T05:06:45.854Z,93431.53
2023-04-01T05:09:32.596Z,93436.63
2023-04-01T05:12:05.722Z,93434.97
2023-04-01T05:14:52.613Z,93431.63
2023-04-01T05:17:32.647Z,93429.00
2023-04-01T05:20:20.606Z,93434.03
2023-04-01T05:22:53.720Z,93441.47
2023-04-01T05:25:40.622Z,93437.09
2023-04-01T05:28:16.747Z,93440.28
2023-04-01T05:31:06.667Z,93435.00
2023-04-01T05:33:47.619Z,93434.22
2023-04-01T05:36:34.608Z,93446.06
2023-04-01T05:39:14.601Z,93447.66
2023-04-01T05:42:01.597Z,93448.38
2023-04-01T05:44:41.712Z,93443.06
2023-04-01T05:47:35.681Z,93447.88
2023-04-01T05:50:22.625Z,93440.94
2023-04-01T05:52:58.750Z,93433.06
2023-04-01T05:55:45.617Z,93438.66
2023-04-01T05:58:18.790Z,93438.38
2023-04-01T06:01:16.285Z,93428.72
2023-04-01T06:03:49.910Z,93446.16
2023-04-01T06:06:39.622Z,93438.50
2023-04-01T06:09:34.610Z,93439.28
2023-04-01T06:12:21.629Z,93440.69
2023-04-01T06:15:03.730Z,93447.13
2023-04-01T06:18:09.680Z,93448.09
2023-04-01T06:20:51.813Z,93440.38
2023-04-01T06:23:57.631Z,93431.34
2023-04-01T06:26:57.787Z,93443.41
2023-04-01T06:29:52.616Z,93445.97
2023-04-01T06:32:32.667Z,93445.91
2023-04-01T06:35:41.729Z,93448.13
2023-04-01T06:38:37.676Z,93451.91
2023-04-01T06:41:18.758Z,93445.41
2023-04-01T06:44:25.646Z,93445.06
2023-04-01T06:47:06.022Z,93444.25
2023-04-01T06:49:59.677Z,93435.69
2023-04-01T06:52:38.760Z,93438.06
2023-04-01T06:55:31.801Z,93428.81
2023-04-01T06:58:07.783Z,93427.88
2023-04-01T07:00:58.679Z,93428.53
2023-04-01T07:03:42.764Z,93428.50
2023-04-01T07:06:43.719Z,93422.09
2023-04-01T07:09:23.962Z,93417.31
2023-04-01T07:12:20.647Z,93419.53
2023-04-01T07:14:57.861Z,93421.66
2023-04-01T07:17:48.699Z,93411.00
2023-04-01T07:20:36.643Z,93418.44
2023-04-01T07:23:35.665Z,93407.81
2023-04-01T07:26:27.853Z,93405.66
2023-04-01T07:29:20.681Z,93412.66
2023-04-01T07:32:16.668Z,93407.97
2023-04-01T07:35:23.704Z,93407.50
2023-04-01T07:38:25.719Z,93399.50
2023-04-01T07:41:21.656Z,93404.16
2023-04-01T07:44:22.783Z,93406.56
2023-04-01T07:47:19.685Z,93409.34
2023-04-01T07:50:22.662Z,93394.94
2023-04-01T07:53:26.691Z,93392.28
2023-04-01T07:56:48.697Z,93399.47
2023-04-01T07:59:47.676Z,93394.25
2023-04-01T08:03:19.727Z,93401.22
2023-04-01T08:06:17.684Z,93397.56
2023-04-01T08:09:17.695Z,93392.88
2023-04-01T08:12:11.698Z,93402.59
2023-04-01T08:15:02.878Z,93402.06
2023-04-01T08:18:12.684Z,93414.38
2023-04-01T08:20:57.836Z,93419.78
2023-04-01T08:23:52.790Z,93429.25
2023-04-01T08:26:25.836Z,93422.47
2023-04-01T08:29:17.716Z,93427.63
2023-04-01T08:31:56.343Z,93426.88
2023-04-01T08:34:48.751Z,93425.28
2023-04-01T08:37:34.689Z,93428.81
2023-04-01T08:40:40.789Z,93424.63
2023-04-01T08:43:51.794Z,93414.22
2023-04-01T08:47:17.729Z,93416.53
2023-04-01T08:50:32.755Z,93413.88
2023-04-01T08:53:34.762Z,93416.94
2023-04-01T08:56:28.757Z,93414.84
2023-04-01T08:59:22.703Z,93414.09
2023-04-01T09:02:40.182Z,93425.72
2023-04-01T09:05:55.723Z,93429.25
2023-04-01T09:08:34.899Z,93436.38
2023-04-01T09:11:49.809Z,93425.09
2023-04-01T09:14:33.879Z,93420.50
2023-04-01T09:17:38.830Z,93408.94
2023-04-01T09:20:58.769Z,93404.75
2023-04-01T09:24:02.712Z,93400.25
2023-04-01T09:27:07.781Z,93405.25
2023-04-01T09:30:15.726Z,93403.38
2023-04-01T09:33:29.741Z,93405.84
2023-04-01T09:36:35.733Z,93401.63
2023-04-01T09:39:48.769Z,93398.22
2023-04-01T09:42:52.792Z,93400.81
2023-04-01T09:45:46.977Z,93395.31
2023-04-01T09:48:39.776Z,93399.03
2023-04-01T09:51:30.947Z,93391.28
2023-04-01T09:54:45.731Z,93396.28
2023-04-01T09:57:21.909Z,93386.47
2023-04-01T10:00:27.843Z,93383.13
2023-04-01T10:03:31.896Z,93395.00
2023-04-01T10:06:39.820Z,93402.38
2023-04-01T10:09:46.085Z,93399.41
2023-04-01T10:12:41.813Z,93397.53
2023-04-01T10:15:31.305Z,93403.59
2023-04-01T10:18:55.857Z,93400.34
2023-04-01T10:21:44.039Z,93388.91
2023-04-01T10:24:33.813Z,93394.22
2023-04-01T10:27:18.075Z,93395.75
2023-04-01T10:30:34.775Z,93397.69
2023-04-01T10:33:36.785Z,93390.91
2023-04-01T10:37:01.795Z,93396.06
2023-04-01T10:39:34.940Z,93409.69
2023-04-01T10:42:39.799Z,93413.88
2023-04-01T10:45:52.059Z,93403.53
2023-04-01T10:48:56.783Z,93401.97
2023-04-01T10:51:48.948Z,93406.94
2023-04-01T10:54:55.819Z,93404.19
2023-04-01T10:57:57.871Z,93393.50
2023-04-01T11:01:19.852Z,93398.66
2023-04-01T11:04:59.814Z,93398.00
2023-04-01T11:08:06.088Z,93397.00
2023-04-01T11:11:19.452Z,93401.59
2023-04-01T11:14:14.797Z,93403.72
2023-04-01T11:17:29.881Z,93397.56
2023-04-01T11:20:25.792Z,93402.78
2023-04-01T11:23:36.877Z,93398.66
2023-04-01T11:26:24.651Z,93402.94
2023-04-01T11:29:26.782Z,93405.22
2023-04-01T11:32:31.975Z,93403.25
2023-04-01T11:35:32.082Z,93412.22
2023-04-01T11:38:21.837Z,93405.44
2023-04-01T11:41:54.802Z,93410.84
2023-04-01T11:44:53.829Z,93406.69
2023-04-01T11:47:59.883Z,93410.59
2023-04-01T11:51:16.803Z,93410.31
2023-04-01T11:54:18.787Z,93406.56
2023-04-01T11:57:32.003Z,93403.16
2023-04-01T12:00:52.768Z,93398.38
2023-04-01T12:03:55.041Z,93395.06
2023-04-01T12:06:45.957Z,93398.38
2023-04-01T12:09:50.875Z,93397.53
2023-04-01T12:12:32.981Z,93399.84
2023-04-01T12:15:51.966Z,93402.41
2023-04-01T12:18:41.230Z,93406.28
2023-04-01T12:22:08.861Z,93399.97
2023-04-01T12:25:08.861Z,93397.09
2023-04-01T12:28:15.848Z,93403.69
2023-04-01T12:31:23.878Z,93404.25
2023-04-01T12:34:19.943Z,93405.97
2023-04-01T12:37:43.901Z,93405.91
2023-04-01T12:40:38.956Z,93398.66
2023-04-01T12:43:56.867Z,93398.22
2023-04-01T12:47:02.165Z,93404.63
2023-04-01T12:50:03.899Z,93410.06
2023-04-01T12:53:10.882Z,93408.88
2023-04-01T12:55:59.902Z,93411.50
2023-04-01T12:58:57.866Z,93407.22
2023-04-01T13:02:12.871Z,93406.22
2023-04-01T13:05:14.047Z,93412.09
2023-04-01T13:08:11.885Z,93411.72
2023-04-01T13:10:58.957Z,93414.47
2023-04-01T13:14:09.316Z,93411.78
2023-04-01T13:16:58.892Z,93407.84
2023-04-01T13:20:42.882Z,93407.56
2023-04-01T13:24:08.610Z,93407.22
2023-04-01T13:27:22.866Z,93414.13
2023-04-01T13:30:25.916Z,93414.84
2023-04-01T13:33:30.675Z,93418.25
2023-04-01T13:36:44.881Z,93421.56
2023-04-01T13:39:38.919Z,93416.56
2023-04-01T13:42:36.907Z,93420.00
2023-04-01T13:45:42.876Z,93418.13
2023-04-01T13:49:07.895Z,93428.53
2023-04-01T13:52:22.860Z,93428.97
2023-04-01T13:55:02.012Z,93435.88
2023-04-01T13:58:10.867Z,93433.13
2023-04-01T14:01:22.071Z,93431.81
2023-04-01T14:04:20.877Z,93434.00
2023-04-01T14:07:10.911Z,93441.41
2023-04-01T14:10:29.894Z,93441.41
2023-04-01T14:13:30.942Z,93443.25
2023-04-01T14:16:36.949Z,93434.78
2023-04-01T14:19:39.992Z,93439.47
2023-04-01T14:22:50.915Z,93431.50
2023-04-01T14:25:57.041Z,93438.94
2023-04-01T14:29:03.907Z,93438.88
2023-04-01T14:31:49.932Z,93440.63
2023-04-01T14:34:58.931Z,93439.69
2023-04-01T14:37:54.923Z,93443.00
2023-04-01T14:40:48.924Z,93447.38
2023-04-01T14:44:15.917Z,93454.53
2023-04-01T14:47:30.984Z,93450.31
2023-04-01T14:50:16.056Z,93459.44
2023-04-01T14:53:14.918Z,93462.81
2023-04-01T14:56:03.928Z,93457.13
2023-04-01T14:58:59.917Z,93471.50
2023-04-01T15:02:50.948Z,93468.59
2023-04-01T15:05:56.965Z,93463.91
2023-04-01T15:08:38.156Z,93470.03
2023-04-01T15:11:45.923Z,93472.03
2023-04-01T15:14:31.202Z,93477.47
2023-04-01T15:17:53.978Z,93481.13
2023-04-01T15:20:43.932Z,93487.34
2023-04-01T15:23:59.947Z,93481.81
2023-04-01T15:27:13.315Z,93483.44
2023-04-01T15:30:10.056Z,93484.69
2023-04-01T15:33:10.983Z,93491.22
2023-04-01T15:35:57.011Z,93487.19
2023-04-01T15:39:23.957Z,93493.41
2023-04-01T15:42:09.009Z,93491.72
2023-04-01T15:45:13.377Z,93484.19
2023-04-01T15:48:11.036Z,93489.81
2023-04-01T15:51:15.942Z,93486.75
2023-04-01T15:54:01.390Z,93489.22
2023-04-01T15:57:16.967Z,93493.75
2023-04-01T15:59:50.019Z,93495.50
2023-04-01T16:02:53.300Z,93499.06
2023-04-01T16:05:50.049Z,93506.13
2023-04-01T16:09:10.908Z,93508.97
2023-04-01T16:12:03.060Z,93515.34
2023-04-01T16:15:15.930Z,93518.22
2023-04-01T16:18:17.970Z,93526.97
2023-04-01T16:20:57.929Z,93531.50
2023-04-01T16:24:00.180Z,93536.88
2023-04-01T16:26:47.081Z,93548.94
2023-04-01T16:29:58.975Z,93548.56
2023-04-01T16:33:03.952Z,93561.22
2023-04-01T16:36:15.970Z,93571.13
2023-04-01T16:39:24.964Z,93576.97
2023-04-01T16:42:21.948Z,93583.50
2023-04-01T16:45:33.970Z,93587.59
2023-04-01T16:48:22.958Z,93590.81
2023-04-01T16:51:30.963Z,93590.41
2023-04-01T16:54:42.969Z,93606.19
2023-04-01T16:57:38.962Z,93599.88
2023-04-01T17:00:34.145Z,93603.47
2023-04-01T17:03:31.942Z,93606.38
2023-04-01T17:06:11.047Z,93621.91
2023-04-01T17:09:40.967Z,93617.06
2023-04-01T17:12:52.965Z,93618.16
2023-04-01T17:15:59.035Z,93618.50
2023-04-01T17:18:54.977Z,93625.50
2023-04-01T17:22:21.969Z,93638.44
2023-04-01T17:25:36.967Z,93632.59
2023-04-01T17:28:49.012Z,93631.84
2023-04-01T17:32:06.977Z,93631.16
2023-04-01T17:35:27.006Z,93636.19
2023-04-01T17:38:13.972Z,93649.09
2023-04-01T17:41:13.003Z,93647.50
2023-04-01T17:44:20.978Z,93654.47
2023-04-01T17:47:59.010Z,93660.63
2023-04-01T17:51:09.982Z,93661.69
2023-04-01T17:53:52.104Z,93670.25
2023-04-01T17:57:01.987Z,93669.41
2023-04-01T17:59:54.040Z,93669.41
2023-04-01T18:03:05.110Z,93673.78
2023-04-01T18:06:08.992Z,93684.03
2023-04-01T18:08:51.191Z,93674.69
2023-04-01T18:12:10.972Z,93682.44
2023-04-01T18:15:03.036Z,93682.66
2023-04-01T18:18:12.992Z,93676.91
2023-04-01T18:21:09.000Z,93675.31
2023-04-01T18:24:09.987Z,93678.88
2023-04-01T18:27:10.009Z,93681.66
2023-04-01T18:29:56.105Z,93686.16
2023-04-01T18:32:58.039Z,93691.41
2023-04-01T18:35:56.082Z,93692.44
2023-04-01T18:38:53.993Z,93685.19
2023-04-01T18:42:06.090Z,93693.97
2023-04-01T18:44:58.991Z,93704.50
2023-04-01T18:48:07.083Z,93708.13
2023-04-01T18:51:15.000Z,93706.69
2023-04-01T18:54:30.002Z,93699.97
2023-04-01T18:57:22.026Z,93704.31
2023-04-01T19:00:10.212Z,93706.16
2023-04-01T19:03:10.170Z,93706.41
2023-04-01T19:05:54.012Z,93709.16
2023-04-01T19:08:55.041Z,93709.44
2023-04-01T19:11:57.005Z,93719.97
2023-04-01T19:14:52.165Z,93716.94
2023-04-01T19:18:02.105Z,93725.72
2023-04-01T19:20:41.213Z,93739.59
2023-04-01T19:23:33.994Z,93740.53
2023-04-01T19:26:11.163Z,93750.81
2023-04-01T19:29:14.018Z,93745.69
2023-04-01T19:32:13.035Z,93750.75
2023-04-01T19:35:19.002Z,93752.50
2023-04-01T19:38:09.048Z,93761.09
2023-04-01T19:41:12.073Z,93766.19
2023-04-01T19:44:17.055Z,93772.09
2023-04-01T19:47:22.076Z,93769.47
2023-04-01T19:50:48.050Z,93776.41
2023-04-01T19:53:58.064Z,93779.06
2023-04-01T19:56:40.029Z,93788.44
2023-04-01T19:59:53.028Z,93785.13
2023-04-01T20:02:52.231Z,93787.78
2023-04-01T20:05:36.403Z,93785.44
2023-04-01T20:08:44.042Z,93783.81
2023-04-01T20:11:42.071Z,93788.00
2023-04-01T20:14:51.032Z,93788.09
2023-04-01T20:17:56.101Z,93788.22
2023-04-01T20:20:43.034Z,93789.13
2023-04-01T20:23:38.146Z,93780.72
2023-04-01T20:26:33.040Z,93776.50
2023-04-01T20:29:23.138Z,93785.88
2023-04-01T20:32:22.041Z,93795.34
2023-04-01T20:35:04.158Z,93789.47
2023-04-01T20:38:16.052Z,93790.38
2023-04-01T20:40:54.218Z,93797.25
2023-04-01T20:43:57.073Z,93799.94
2023-04-01T20:46:56.137Z,93807.72
2023-04-01T20:50:35.080Z,93815.38
2023-04-01T20:53:28.145Z,93812.84
2023-04-01T20:56:24.073Z,93811.94
2023-04-01T20:59:41.107Z,93813.66
2023-04-01T21:02:43.158Z,93807.72
2023-04-01T21:05:35.517Z,93811.91
2023-04-01T21:08:25.050Z,93815.25
2023-04-01T21:11:24.223Z,93815.28
2023-04-01T21:14:24.050Z,93818.72
2023-04-01T21:17:17.077Z,93823.84
2023-04-01T21:20:28.078Z,93829.00
2023-04-01T21:23:19.205Z,93826.41
2023-04-01T21:26:27.093Z,93828.22
2023-04-01T21:29:04.180Z,93827.44
2023-04-01T21:32:15.078Z,93833.38
2023-04-01T21:35:11.083Z,93836.03
2023-04-01T21:38:13.096Z,93835.28
2023-04-01T21:41:44.104Z,93833.63
2023-04-01T21:44:35.174Z,93841.25
2023-04-01T21:47:44.112Z,93835.34
2023-04-01T21:50:46.120Z,93840.34
2023-04-01T21:53:22.201Z,93835.28
2023-04-01T21:56:18.089Z,93835.28
2023-04-01T21:59:19.081Z,93832.69
2023-04-01T22:02:45.143Z,93830.16
2023-04-01T22:05:59.098Z,93831.09
2023-04-01T22:08:54.194Z,93834.66
2023-04-01T22:12:02.106Z,93828.81
2023-04-01T22:14:53.102Z,93826.31
2023-04-01T22:18:12.130Z,93828.97
2023-04-01T22:21:29.119Z,93828.28
2023-04-01T22:24:07.224Z,93835.13
2023-04-01T22:27:01.110Z,93836.00
2023-04-01T22:29:53.086Z,93836.06
2023-04-01T22:33:01.140Z,93831.06
2023-04-01T22:36:17.122Z,93838.69
2023-04-01T22:39:44.105Z,93834.38
2023-04-01T22:42:37.104Z,93846.13
2023-04-01T22:45:17.092Z,93841.09
2023-04-01T22:48:37.132Z,93839.47
2023-04-01T22:51:36.153Z,93840.31
2023-04-01T22:54:16.112Z,93839.38
2023-04-01T22:57:18.137Z,93838.56
2023-04-01T23:00:09.164Z,93837.63
2023-04-01T23:03:29.135Z,93840.16
2023-04-01T23:06:05.312Z,93822.38
2023-04-01T23:09:07.139Z,93835.22
2023-04-01T23:12:08.147Z,93840.44
2023-04-01T23:15:19.120Z,93836.38
2023-04-01T23:18:27.092Z,93838.97
2023-04-01T23:21:34.120Z,93840.78
2023-04-01T23:24:40.135Z,93840.84
2023-04-01T23:27:51.118Z,93837.56
2023-04-01T23:31:06.220Z,93842.59
2023-04-01T23:34:00.137Z,93835.88
2023-04-01T23:36:34.216Z,93843.53
2023-04-01T23:39:30.159Z,93846.00
2023-04-01T23:42:19.128Z,93840.84
2023-04-01T23:45:19.147Z,93846.03
2023-04-01T23:48:13.154Z,93837.56
2023-04-01T23:51:00.126Z,93852.03
2023-04-01T23:53:38.238Z,93848.59
2023-04-01T23:56:26.122Z,93850.25
2023-04-01T23:59:00.385Z,93851.09
